sensor_id;sensor_type;location;lat;lon;timestamp;P1;durP1;ratioP1;P2;durP2;ratioP2
72358;SDS011;60317;48.880;-0.862;2023-05-10T00:00:04;1.50;;;0.80;;
72358;SDS011;60317;48.880;-0.862;2023-05-10T00:02:31;1.80;;;0.65;;
72358;SDS011;60317;48.880;-0.862;2023-05-10T00:04:58;1.92;;;0.77;;
72358;SDS011;60317;48.880;-0.862;2023-05-10T00:07:24;2.80;;;1.00;;
72358;SDS011;60317;48.880;-0.862;2023-05-10T00:09:51;2.33;;;0.95;;
72358;SDS011;60317;48.880;-0.862;2023-05-10T00:12:17;3.25;;;1.02;;
72358;SDS011;60317;48.880;-0.862;2023-05-10T00:14:45;1.65;;;0.60;;
72358;SDS011;60317;48.880;-0.862;2023-05-10T00:17:11;3.80;;;1.05;;
72358;SDS011;60317;48.880;-0.862;2023-05-10T00:19:38;2.90;;;1.00;;
72358;SDS011;60317;48.880;-0.862;2023-05-10T00:22:05;1.15;;;0.52;;
72358;SDS011;60317;48.880;-0.862;2023-05-10T00:24:31;2.47;;;1.00;;
72358;SDS011;60317;48.880;-0.862;2023-05-10T00:26:58;2.58;;;1.05;;
72358;SDS011;60317;48.880;-0.862;2023-05-10T00:29:24;2.70;;;1.00;;
72358;SDS011;60317;48.880;-0.862;2023-05-10T00:31:52;3.47;;;1.10;;
72358;SDS011;60317;48.880;-0.862;2023-05-10T00:34:18;2.33;;;0.70;;
72358;SDS011;60317;48.880;-0.862;2023-05-10T00:36:45;3.35;;;1.10;;
72358;SDS011;60317;48.880;-0.862;2023-05-10T00:39:11;2.60;;;0.98;;
72358;SDS011;60317;48.880;-0.862;2023-05-10T00:41:38;1.92;;;0.80;;
72358;SDS011;60317;48.880;-0.862;2023-05-10T00:44:04;2.63;;;0.93;;
72358;SDS011;60317;48.880;-0.862;2023-05-10T00:46:31;2.50;;;1.00;;
72358;SDS011;60317;48.880;-0.862;2023-05-10T00:48:59;3.10;;;1.13;;
72358;SDS011;60317;48.880;-0.862;2023-05-10T00:51:26;4.15;;;1.00;;
72358;SDS011;60317;48.880;-0.862;2023-05-10T00:53:52;2.50;;;0.88;;
72358;SDS011;60317;48.880;-0.862;2023-05-10T00:56:19;2.95;;;1.10;;
72358;SDS011;60317;48.880;-0.862;2023-05-10T00:58:46;3.30;;;1.15;;
72358;SDS011;60317;48.880;-0.862;2023-05-10T01:01:12;3.95;;;1.30;;
72358;SDS011;60317;48.880;-0.862;2023-05-10T01:03:39;4.13;;;1.05;;
72358;SDS011;60317;48.880;-0.862;2023-05-10T01:06:07;3.90;;;1.17;;
72358;SDS011;60317;48.880;-0.862;2023-05-10T01:08:34;3.17;;;1.00;;
72358;SDS011;60317;48.880;-0.862;2023-05-10T01:11:01;2.90;;;1.00;;
72358;SDS011;60317;48.880;-0.862;2023-05-10T01:13:30;1.95;;;1.02;;
72358;SDS011;60317;48.880;-0.862;2023-05-10T01:15:59;1.90;;;0.90;;
72358;SDS011;60317;48.880;-0.862;2023-05-10T01:18:26;2.47;;;1.00;;
72358;SDS011;60317;48.880;-0.862;2023-05-10T01:20:57;2.22;;;0.85;;
72358;SDS011;60317;48.880;-0.862;2023-05-10T01:23:34;2.53;;;0.90;;
72358;SDS011;60317;48.880;-0.862;2023-05-10T01:26:14;4.88;;;1.25;;
72358;SDS011;60317;48.880;-0.862;2023-05-10T01:28:58;2.97;;;1.10;;
72358;SDS011;60317;48.880;-0.862;2023-05-10T01:31:52;3.80;;;1.27;;
72358;SDS011;60317;48.880;-0.862;2023-05-10T01:34:30;3.88;;;1.38;;
72358;SDS011;60317;48.880;-0.862;2023-05-10T01:37:02;5.18;;;1.75;;
72358;SDS011;60317;48.880;-0.862;2023-05-10T01:39:32;4.70;;;1.52;;
72358;SDS011;60317;48.880;-0.862;2023-05-10T01:42:07;6.80;;;1.60;;
72358;SDS011;60317;48.880;-0.862;2023-05-10T01:44:37;4.50;;;1.48;;
72358;SDS011;60317;48.880;-0.862;2023-05-10T01:47:09;4.75;;;1.13;;
72358;SDS011;60317;48.880;-0.862;2023-05-10T01:49:39;6.35;;;1.83;;
72358;SDS011;60317;48.880;-0.862;2023-05-10T01:52:10;3.35;;;1.40;;
72358;SDS011;60317;48.880;-0.862;2023-05-10T01:54:41;5.80;;;1.80;;
72358;SDS011;60317;48.880;-0.862;2023-05-10T01:57:11;5.20;;;1.48;;
72358;SDS011;60317;48.880;-0.862;2023-05-10T01:59:40;4.45;;;1.45;;
72358;SDS011;60317;48.880;-0.862;2023-05-10T02:02:12;5.85;;;1.50;;
72358;SDS011;60317;48.880;-0.862;2023-05-10T02:04:40;4.65;;;1.40;;
72358;SDS011;60317;48.880;-0.862;2023-05-10T02:07:09;8.85;;;1.67;;
72358;SDS011;60317;48.880;-0.862;2023-05-10T02:09:37;4.05;;;1.45;;
72358;SDS011;60317;48.880;-0.862;2023-05-10T02:12:05;5.15;;;1.70;;
72358;SDS011;60317;48.880;-0.862;2023-05-10T02:14:33;7.18;;;1.60;;
72358;SDS011;60317;48.880;-0.862;2023-05-10T02:17:02;4.80;;;1.52;;
72358;SDS011;60317;48.880;-0.862;2023-05-10T02:19:32;6.45;;;1.60;;
72358;SDS011;60317;48.880;-0.862;2023-05-10T02:22:01;5.95;;;1.50;;
72358;SDS011;60317;48.880;-0.862;2023-05-10T02:24:30;5.32;;;1.50;;
72358;SDS011;60317;48.880;-0.862;2023-05-10T02:26:58;4.15;;;1.35;;
72358;SDS011;60317;48.880;-0.862;2023-05-10T02:29:26;6.03;;;1.70;;
72358;SDS011;60317;48.880;-0.862;2023-05-10T02:31:54;6.43;;;2.08;;
72358;SDS011;60317;48.880;-0.862;2023-05-10T02:34:23;5.20;;;2.10;;
72358;SDS011;60317;48.880;-0.862;2023-05-10T02:36:54;5.47;;;1.60;;
72358;SDS011;60317;48.880;-0.862;2023-05-10T02:39:21;6.20;;;1.65;;
72358;SDS011;60317;48.880;-0.862;2023-05-10T02:41:50;4.82;;;1.55;;
72358;SDS011;60317;48.880;-0.862;2023-05-10T02:44:18;4.45;;;1.65;;
72358;SDS011;60317;48.880;-0.862;2023-05-10T02:46:46;6.00;;;1.85;;
72358;SDS011;60317;48.880;-0.862;2023-05-10T02:49:13;6.28;;;2.00;;
72358;SDS011;60317;48.880;-0.862;2023-05-10T02:51:40;8.23;;;2.03;;
72358;SDS011;60317;48.880;-0.862;2023-05-10T02:54:11;6.57;;;2.08;;
72358;SDS011;60317;48.880;-0.862;2023-05-10T02:56:42;6.78;;;1.80;;
72358;SDS011;60317;48.880;-0.862;2023-05-10T02:59:13;6.78;;;1.85;;
72358;SDS011;60317;48.880;-0.862;2023-05-10T03:01:40;4.82;;;1.90;;
72358;SDS011;60317;48.880;-0.862;2023-05-10T03:04:06;5.25;;;1.90;;
72358;SDS011;60317;48.880;-0.862;2023-05-10T03:06:33;5.85;;;2.05;;
72358;SDS011;60317;48.880;-0.862;2023-05-10T03:08:59;4.90;;;1.90;;
72358;SDS011;60317;48.880;-0.862;2023-05-10T03:11:31;5.80;;;1.73;;
72358;SDS011;60317;48.880;-0.862;2023-05-10T03:14:07;6.93;;;1.73;;
72358;SDS011;60317;48.880;-0.862;2023-05-10T03:16:41;5.88;;;2.05;;
72358;SDS011;60317;48.880;-0.862;2023-05-10T03:19:12;5.50;;;1.67;;
72358;SDS011;60317;48.880;-0.862;2023-05-10T03:21:44;7.03;;;2.15;;
72358;SDS011;60317;48.880;-0.862;2023-05-10T03:24:15;5.18;;;1.90;;
72358;SDS011;60317;48.880;-0.862;2023-05-10T03:26:46;6.00;;;2.08;;
72358;SDS011;60317;48.880;-0.862;2023-05-10T03:29:13;7.00;;;1.90;;
72358;SDS011;60317;48.880;-0.862;2023-05-10T03:31:42;5.35;;;2.15;;
72358;SDS011;60317;48.880;-0.862;2023-05-10T03:34:08;6.05;;;2.00;;
72358;SDS011;60317;48.880;-0.862;2023-05-10T03:36:35;5.53;;;1.70;;
72358;SDS011;60317;48.880;-0.862;2023-05-10T03:39:01;7.80;;;2.10;;
72358;SDS011;60317;48.880;-0.862;2023-05-10T03:41:28;6.35;;;1.90;;
72358;SDS011;60317;48.880;-0.862;2023-05-10T03:43:56;5.18;;;1.90;;
72358;SDS011;60317;48.880;-0.862;2023-05-10T03:46:23;5.57;;;1.98;;
72358;SDS011;60317;48.880;-0.862;2023-05-10T03:48:49;5.40;;;1.83;;
72358;SDS011;60317;48.880;-0.862;2023-05-10T03:51:16;5.75;;;2.00;;
72358;SDS011;60317;48.880;-0.862;2023-05-10T03:53:42;7.35;;;1.90;;
72358;SDS011;60317;48.880;-0.862;2023-05-10T03:56:09;6.05;;;2.00;;
72358;SDS011;60317;48.880;-0.862;2023-05-10T03:58:35;5.88;;;1.85;;
72358;SDS011;60317;48.880;-0.862;2023-05-10T04:01:03;4.88;;;2.00;;
72358;SDS011;60317;48.880;-0.862;2023-05-10T04:03:30;4.28;;;1.45;;
72358;SDS011;60317;48.880;-0.862;2023-05-10T04:05:58;5.63;;;1.80;;
72358;SDS011;60317;48.880;-0.862;2023-05-10T04:08:25;7.85;;;2.38;;
72358;SDS011;60317;48.880;-0.862;2023-05-10T04:10:52;5.63;;;1.70;;
72358;SDS011;60317;48.880;-0.862;2023-05-10T04:13:18;5.05;;;1.60;;
72358;SDS011;60317;48.880;-0.862;2023-05-10T04:15:45;6.05;;;1.70;;
72358;SDS011;60317;48.880;-0.862;2023-05-10T04:18:13;4.47;;;1.52;;
72358;SDS011;60317;48.880;-0.862;2023-05-10T04:20:39;5.85;;;2.08;;
72358;SDS011;60317;48.880;-0.862;2023-05-10T04:23:06;5.78;;;1.90;;
72358;SDS011;60317;48.880;-0.862;2023-05-10T04:25:33;6.75;;;1.75;;
72358;SDS011;60317;48.880;-0.862;2023-05-10T04:28:00;5.22;;;1.75;;
72358;SDS011;60317;48.880;-0.862;2023-05-10T04:30:26;3.83;;;1.48;;
72358;SDS011;60317;48.880;-0.862;2023-05-10T04:32:53;4.70;;;1.60;;
72358;SDS011;60317;48.880;-0.862;2023-05-10T04:35:21;4.40;;;1.55;;
72358;SDS011;60317;48.880;-0.862;2023-05-10T04:37:47;4.15;;;1.40;;
72358;SDS011;60317;48.880;-0.862;2023-05-10T04:40:14;4.45;;;1.50;;
72358;SDS011;60317;48.880;-0.862;2023-05-10T04:42:41;6.03;;;1.90;;
72358;SDS011;60317;48.880;-0.862;2023-05-10T04:45:07;4.93;;;1.92;;
72358;SDS011;60317;48.880;-0.862;2023-05-10T04:47:34;5.90;;;1.90;;
72358;SDS011;60317;48.880;-0.862;2023-05-10T04:50:01;4.82;;;1.80;;
72358;SDS011;60317;48.880;-0.862;2023-05-10T04:52:29;6.72;;;2.00;;
72358;SDS011;60317;48.880;-0.862;2023-05-10T04:54:55;5.53;;;1.85;;
72358;SDS011;60317;48.880;-0.862;2023-05-10T04:57:22;3.78;;;1.70;;
72358;SDS011;60317;48.880;-0.862;2023-05-10T04:59:48;4.88;;;1.85;;
72358;SDS011;60317;48.880;-0.862;2023-05-10T05:02:16;6.45;;;1.75;;
72358;SDS011;60317;48.880;-0.862;2023-05-10T05:04:42;5.13;;;1.80;;
72358;SDS011;60317;48.880;-0.862;2023-05-10T05:07:09;7.78;;;2.08;;
72358;SDS011;60317;48.880;-0.862;2023-05-10T05:09:36;5.88;;;1.92;;
72358;SDS011;60317;48.880;-0.862;2023-05-10T05:12:03;32.47;;;3.70;;
72358;SDS011;60317;48.880;-0.862;2023-05-10T05:14:30;16.77;;;3.00;;
72358;SDS011;60317;48.880;-0.862;2023-05-10T05:16:56;12.93;;;2.45;;
72358;SDS011;60317;48.880;-0.862;2023-05-10T05:19:23;14.85;;;2.75;;
72358;SDS011;60317;48.880;-0.862;2023-05-10T05:21:49;13.65;;;2.75;;
72358;SDS011;60317;48.880;-0.862;2023-05-10T05:24:16;18.60;;;2.97;;
72358;SDS011;60317;48.880;-0.862;2023-05-10T05:26:44;11.20;;;2.53;;
72358;SDS011;60317;48.880;-0.862;2023-05-10T05:29:10;8.95;;;2.10;;
72358;SDS011;60317;48.880;-0.862;2023-05-10T05:31:37;17.77;;;2.42;;
72358;SDS011;60317;48.880;-0.862;2023-05-10T05:34:03;10.15;;;2.65;;
72358;SDS011;60317;48.880;-0.862;2023-05-10T05:36:30;12.70;;;2.80;;
72358;SDS011;60317;48.880;-0.862;2023-05-10T05:38:56;6.70;;;2.17;;
72358;SDS011;60317;48.880;-0.862;2023-05-10T05:41:23;8.18;;;2.17;;
72358;SDS011;60317;48.880;-0.862;2023-05-10T05:43:51;12.23;;;2.75;;
72358;SDS011;60317;48.880;-0.862;2023-05-10T05:46:17;12.27;;;2.50;;
72358;SDS011;60317;48.880;-0.862;2023-05-10T05:48:44;10.23;;;2.35;;
72358;SDS011;60317;48.880;-0.862;2023-05-10T05:51:10;8.27;;;2.25;;
72358;SDS011;60317;48.880;-0.862;2023-05-10T05:53:37;8.68;;;2.20;;
72358;SDS011;60317;48.880;-0.862;2023-05-10T05:56:04;8.38;;;2.13;;
72358;SDS011;60317;48.880;-0.862;2023-05-10T05:58:30;14.05;;;2.42;;
72358;SDS011;60317;48.880;-0.862;2023-05-10T06:00:58;10.60;;;2.53;;
72358;SDS011;60317;48.880;-0.862;2023-05-10T06:03:25;9.77;;;2.40;;
72358;SDS011;60317;48.880;-0.862;2023-05-10T06:05:51;7.97;;;2.15;;
72358;SDS011;60317;48.880;-0.862;2023-05-10T06:08:18;8.65;;;1.70;;
72358;SDS011;60317;48.880;-0.862;2023-05-10T06:10:45;9.40;;;2.33;;
72358;SDS011;60317;48.880;-0.862;2023-05-10T06:13:11;5.32;;;2.03;;
72358;SDS011;60317;48.880;-0.862;2023-05-10T06:15:38;4.65;;;1.92;;
72358;SDS011;60317;48.880;-0.862;2023-05-10T06:18:06;6.35;;;1.80;;
72358;SDS011;60317;48.880;-0.862;2023-05-10T06:20:33;5.78;;;1.75;;
72358;SDS011;60317;48.880;-0.862;2023-05-10T06:23:00;9.68;;;2.15;;
72358;SDS011;60317;48.880;-0.862;2023-05-10T06:25:26;6.30;;;1.92;;
72358;SDS011;60317;48.880;-0.862;2023-05-10T06:27:53;6.20;;;2.10;;
72358;SDS011;60317;48.880;-0.862;2023-05-10T06:30:19;7.65;;;2.28;;
72358;SDS011;60317;48.880;-0.862;2023-05-10T06:32:46;7.13;;;2.15;;
72358;SDS011;60317;48.880;-0.862;2023-05-10T06:35:14;6.47;;;1.85;;
72358;SDS011;60317;48.880;-0.862;2023-05-10T06:37:41;8.32;;;2.00;;
72358;SDS011;60317;48.880;-0.862;2023-05-10T06:40:07;6.90;;;2.30;;
72358;SDS011;60317;48.880;-0.862;2023-05-10T06:42:34;6.70;;;1.83;;
72358;SDS011;60317;48.880;-0.862;2023-05-10T06:45:01;8.50;;;2.20;;
72358;SDS011;60317;48.880;-0.862;2023-05-10T06:47:28;9.50;;;2.38;;
72358;SDS011;60317;48.880;-0.862;2023-05-10T06:49:54;7.78;;;2.00;;
72358;SDS011;60317;48.880;-0.862;2023-05-10T06:52:22;6.90;;;2.33;;
72358;SDS011;60317;48.880;-0.862;2023-05-10T06:54:48;8.88;;;2.35;;
72358;SDS011;60317;48.880;-0.862;2023-05-10T06:57:15;9.35;;;1.88;;
72358;SDS011;60317;48.880;-0.862;2023-05-10T06:59:57;7.20;;;1.95;;
72358;SDS011;60317;48.880;-0.862;2023-05-10T07:02:23;7.55;;;2.47;;
72358;SDS011;60317;48.880;-0.862;2023-05-10T07:04:50;11.77;;;2.45;;
72358;SDS011;60317;48.880;-0.862;2023-05-10T07:07:17;10.98;;;2.13;;
72358;SDS011;60317;48.880;-0.862;2023-05-10T07:09:45;10.73;;;2.42;;
72358;SDS011;60317;48.880;-0.862;2023-05-10T07:12:12;9.30;;;2.47;;
72358;SDS011;60317;48.880;-0.862;2023-05-10T07:14:40;10.50;;;2.47;;
72358;SDS011;60317;48.880;-0.862;2023-05-10T07:17:07;7.85;;;2.40;;
72358;SDS011;60317;48.880;-0.862;2023-05-10T07:19:34;12.18;;;2.95;;
72358;SDS011;60317;48.880;-0.862;2023-05-10T07:22:00;20.30;;;3.10;;
72358;SDS011;60317;48.880;-0.862;2023-05-10T07:24:27;13.65;;;3.00;;
72358;SDS011;60317;48.880;-0.862;2023-05-10T07:26:55;19.98;;;2.90;;
72358;SDS011;60317;48.880;-0.862;2023-05-10T07:29:21;16.20;;;2.88;;
72358;SDS011;60317;48.880;-0.862;2023-05-10T07:31:48;15.32;;;2.90;;
72358;SDS011;60317;48.880;-0.862;2023-05-10T07:34:14;14.52;;;3.10;;
72358;SDS011;60317;48.880;-0.862;2023-05-10T07:36:41;26.38;;;3.58;;
72358;SDS011;60317;48.880;-0.862;2023-05-10T07:39:08;12.77;;;3.28;;
72358;SDS011;60317;48.880;-0.862;2023-05-10T07:41:34;15.52;;;2.85;;
72358;SDS011;60317;48.880;-0.862;2023-05-10T07:44:02;20.30;;;3.17;;
72358;SDS011;60317;48.880;-0.862;2023-05-10T07:46:29;22.00;;;3.88;;
72358;SDS011;60317;48.880;-0.862;2023-05-10T07:48:56;13.90;;;3.15;;
72358;SDS011;60317;48.880;-0.862;2023-05-10T07:51:22;18.52;;;3.45;;
72358;SDS011;60317;48.880;-0.862;2023-05-10T07:53:49;14.63;;;3.08;;
72358;SDS011;60317;48.880;-0.862;2023-05-10T07:56:20;23.90;;;3.42;;
72358;SDS011;60317;48.880;-0.862;2023-05-10T07:58:48;16.15;;;3.53;;
72358;SDS011;60317;48.880;-0.862;2023-05-10T08:01:16;16.15;;;3.40;;
72358;SDS011;60317;48.880;-0.862;2023-05-10T08:03:43;17.77;;;3.22;;
72358;SDS011;60317;48.880;-0.862;2023-05-10T08:06:10;16.60;;;3.85;;
72358;SDS011;60317;48.880;-0.862;2023-05-10T08:08:36;20.00;;;3.42;;
72358;SDS011;60317;48.880;-0.862;2023-05-10T08:11:03;12.57;;;3.45;;
72358;SDS011;60317;48.880;-0.862;2023-05-10T08:13:30;11.95;;;3.70;;
72358;SDS011;60317;48.880;-0.862;2023-05-10T08:15:56;14.70;;;3.15;;
72358;SDS011;60317;48.880;-0.862;2023-05-10T08:18:24;17.75;;;3.58;;
72358;SDS011;60317;48.880;-0.862;2023-05-10T08:20:51;22.50;;;3.92;;
72358;SDS011;60317;48.880;-0.862;2023-05-10T08:23:17;23.75;;;3.55;;
72358;SDS011;60317;48.880;-0.862;2023-05-10T08:25:44;21.35;;;4.38;;
72358;SDS011;60317;48.880;-0.862;2023-05-10T08:28:10;28.50;;;3.42;;
72358;SDS011;60317;48.880;-0.862;2023-05-10T08:30:37;13.63;;;3.30;;
72358;SDS011;60317;48.880;-0.862;2023-05-10T08:33:04;19.73;;;3.50;;
72358;SDS011;60317;48.880;-0.862;2023-05-10T08:35:32;20.30;;;3.33;;
72358;SDS011;60317;48.880;-0.862;2023-05-10T08:37:58;24.23;;;3.75;;
72358;SDS011;60317;48.880;-0.862;2023-05-10T08:40:25;16.20;;;3.28;;
72358;SDS011;60317;48.880;-0.862;2023-05-10T08:42:54;18.10;;;3.33;;
72358;SDS011;60317;48.880;-0.862;2023-05-10T08:45:25;23.15;;;3.50;;
72358;SDS011;60317;48.880;-0.862;2023-05-10T08:47:55;20.13;;;3.30;;
72358;SDS011;60317;48.880;-0.862;2023-05-10T08:50:22;17.30;;;3.20;;
72358;SDS011;60317;48.880;-0.862;2023-05-10T08:52:52;16.88;;;2.88;;
72358;SDS011;60317;48.880;-0.862;2023-05-10T08:55:23;16.85;;;3.17;;
72358;SDS011;60317;48.880;-0.862;2023-05-10T08:57:50;18.45;;;3.28;;
72358;SDS011;60317;48.880;-0.862;2023-05-10T09:00:17;18.08;;;3.10;;
72358;SDS011;60317;48.880;-0.862;2023-05-10T09:02:44;17.27;;;3.35;;
72358;SDS011;60317;48.880;-0.862;2023-05-10T09:05:11;21.10;;;4.07;;
72358;SDS011;60317;48.880;-0.862;2023-05-10T09:07:38;19.58;;;3.47;;
72358;SDS011;60317;48.880;-0.862;2023-05-10T09:10:07;18.27;;;3.42;;
72358;SDS011;60317;48.880;-0.862;2023-05-10T09:12:35;16.75;;;2.95;;
72358;SDS011;60317;48.880;-0.862;2023-05-10T09:15:02;13.48;;;3.40;;
72358;SDS011;60317;48.880;-0.862;2023-05-10T09:17:30;13.38;;;2.83;;
72358;SDS011;60317;48.880;-0.862;2023-05-10T09:19:57;13.93;;;3.78;;
72358;SDS011;60317;48.880;-0.862;2023-05-10T09:22:24;13.70;;;3.28;;
72358;SDS011;60317;48.880;-0.862;2023-05-10T09:25:02;9.45;;;2.90;;
72358;SDS011;60317;48.880;-0.862;2023-05-10T09:27:31;11.55;;;2.85;;
72358;SDS011;60317;48.880;-0.862;2023-05-10T09:29:57;14.50;;;3.03;;
72358;SDS011;60317;48.880;-0.862;2023-05-10T09:32:27;26.83;;;3.50;;
72358;SDS011;60317;48.880;-0.862;2023-05-10T09:35:05;20.52;;;3.35;;
72358;SDS011;60317;48.880;-0.862;2023-05-10T09:37:34;16.92;;;2.90;;
72358;SDS011;60317;48.880;-0.862;2023-05-10T09:40:01;18.45;;;2.95;;
72358;SDS011;60317;48.880;-0.862;2023-05-10T09:42:32;26.83;;;2.97;;
72358;SDS011;60317;48.880;-0.862;2023-05-10T09:45:00;24.00;;;3.15;;
72358;SDS011;60317;48.880;-0.862;2023-05-10T09:47:29;15.77;;;3.15;;
72358;SDS011;60317;48.880;-0.862;2023-05-10T09:49:57;28.02;;;3.50;;
72358;SDS011;60317;48.880;-0.862;2023-05-10T09:52:24;17.50;;;2.75;;
72358;SDS011;60317;48.880;-0.862;2023-05-10T09:54:52;24.00;;;3.30;;
72358;SDS011;60317;48.880;-0.862;2023-05-10T09:57:20;15.07;;;3.05;;
72358;SDS011;60317;48.880;-0.862;2023-05-10T09:59:49;21.35;;;2.78;;
72358;SDS011;60317;48.880;-0.862;2023-05-10T10:02:16;9.40;;;2.50;;
72358;SDS011;60317;48.880;-0.862;2023-05-10T10:04:42;12.88;;;2.38;;
72358;SDS011;60317;48.880;-0.862;2023-05-10T10:07:09;11.77;;;2.50;;
72358;SDS011;60317;48.880;-0.862;2023-05-10T10:09:36;14.18;;;2.80;;
72358;SDS011;60317;48.880;-0.862;2023-05-10T10:12:02;11.75;;;2.50;;
72358;SDS011;60317;48.880;-0.862;2023-05-10T10:14:29;15.13;;;3.33;;
72358;SDS011;60317;48.880;-0.862;2023-05-10T10:16:57;22.48;;;3.00;;
72358;SDS011;60317;48.880;-0.862;2023-05-10T10:19:34;13.45;;;3.17;;
72358;SDS011;60317;48.880;-0.862;2023-05-10T10:22:01;9.10;;;2.63;;
72358;SDS011;60317;48.880;-0.862;2023-05-10T10:24:28;10.60;;;2.40;;
72358;SDS011;60317;48.880;-0.862;2023-05-10T10:26:55;16.65;;;2.13;;
72358;SDS011;60317;48.880;-0.862;2023-05-10T10:29:31;13.98;;;3.05;;
72358;SDS011;60317;48.880;-0.862;2023-05-10T10:32:06;9.45;;;2.22;;
72358;SDS011;60317;48.880;-0.862;2023-05-10T10:34:38;8.98;;;2.05;;
72358;SDS011;60317;48.880;-0.862;2023-05-10T10:37:05;6.18;;;2.17;;
72358;SDS011;60317;48.880;-0.862;2023-05-10T10:39:32;11.27;;;2.63;;
72358;SDS011;60317;48.880;-0.862;2023-05-10T10:41:59;7.50;;;2.10;;
72358;SDS011;60317;48.880;-0.862;2023-05-10T10:44:33;8.57;;;1.77;;
72358;SDS011;60317;48.880;-0.862;2023-05-10T10:47:02;7.93;;;2.20;;
72358;SDS011;60317;48.880;-0.862;2023-05-10T10:49:32;6.22;;;2.17;;
72358;SDS011;60317;48.880;-0.862;2023-05-10T10:54:45;7.13;;;2.08;;
72358;SDS011;60317;48.880;-0.862;2023-05-10T10:57:17;6.95;;;2.00;;
72358;SDS011;60317;48.880;-0.862;2023-05-10T10:59:45;9.00;;;2.10;;
72358;SDS011;60317;48.880;-0.862;2023-05-10T11:07:53;16.50;;;2.85;;
72358;SDS011;60317;48.880;-0.862;2023-05-10T11:10:21;16.65;;;2.70;;
72358;SDS011;60317;48.880;-0.862;2023-05-10T11:12:52;14.45;;;2.83;;
72358;SDS011;60317;48.880;-0.862;2023-05-10T11:15:19;26.25;;;3.00;;
72358;SDS011;60317;48.880;-0.862;2023-05-10T11:17:47;9.52;;;2.40;;
72358;SDS011;60317;48.880;-0.862;2023-05-10T11:20:14;11.57;;;2.47;;
72358;SDS011;60317;48.880;-0.862;2023-05-10T11:22:49;13.50;;;2.67;;
72358;SDS011;60317;48.880;-0.862;2023-05-10T11:25:17;13.82;;;3.05;;
72358;SDS011;60317;48.880;-0.862;2023-05-10T11:27:45;14.27;;;2.65;;
72358;SDS011;60317;48.880;-0.862;2023-05-10T11:30:14;14.10;;;2.72;;
72358;SDS011;60317;48.880;-0.862;2023-05-10T11:32:41;12.93;;;2.80;;
72358;SDS011;60317;48.880;-0.862;2023-05-10T11:35:08;11.68;;;2.55;;
72358;SDS011;60317;48.880;-0.862;2023-05-10T11:37:36;10.57;;;2.20;;
72358;SDS011;60317;48.880;-0.862;2023-05-10T11:40:03;15.70;;;2.63;;
72358;SDS011;60317;48.880;-0.862;2023-05-10T11:42:32;15.07;;;2.58;;
72358;SDS011;60317;48.880;-0.862;2023-05-10T11:44:59;10.38;;;2.50;;
72358;SDS011;60317;48.880;-0.862;2023-05-10T11:47:26;17.17;;;2.72;;
72358;SDS011;60317;48.880;-0.862;2023-05-10T11:49:53;28.25;;;4.53;;
72358;SDS011;60317;48.880;-0.862;2023-05-10T11:52:20;23.95;;;4.60;;
72358;SDS011;60317;48.880;-0.862;2023-05-10T11:54:50;16.67;;;3.90;;
72358;SDS011;60317;48.880;-0.862;2023-05-10T11:57:18;27.45;;;4.20;;
72358;SDS011;60317;48.880;-0.862;2023-05-10T11:59:46;22.00;;;4.97;;
72358;SDS011;60317;48.880;-0.862;2023-05-10T12:02:13;20.70;;;3.65;;
72358;SDS011;60317;48.880;-0.862;2023-05-10T12:04:40;22.48;;;4.88;;
72358;SDS011;60317;48.880;-0.862;2023-05-10T12:07:07;17.00;;;3.60;;
72358;SDS011;60317;48.880;-0.862;2023-05-10T12:09:34;19.38;;;4.18;;
72358;SDS011;60317;48.880;-0.862;2023-05-10T12:12:09;17.20;;;3.58;;
72358;SDS011;60317;48.880;-0.862;2023-05-10T12:14:36;11.98;;;3.10;;
72358;SDS011;60317;48.880;-0.862;2023-05-10T12:17:04;16.67;;;3.15;;
72358;SDS011;60317;48.880;-0.862;2023-05-10T12:19:36;16.38;;;3.33;;
72358;SDS011;60317;48.880;-0.862;2023-05-10T12:22:04;17.63;;;3.60;;
72358;SDS011;60317;48.880;-0.862;2023-05-10T12:24:31;11.93;;;3.10;;
72358;SDS011;60317;48.880;-0.862;2023-05-10T12:27:03;13.05;;;3.00;;
72358;SDS011;60317;48.880;-0.862;2023-05-10T12:29:31;16.58;;;3.30;;
72358;SDS011;60317;48.880;-0.862;2023-05-10T12:31:58;14.13;;;3.08;;
72358;SDS011;60317;48.880;-0.862;2023-05-10T12:34:29;11.75;;;3.38;;
72358;SDS011;60317;48.880;-0.862;2023-05-10T12:36:57;15.13;;;2.83;;
72358;SDS011;60317;48.880;-0.862;2023-05-10T12:39:24;15.32;;;3.00;;
72358;SDS011;60317;48.880;-0.862;2023-05-10T12:41:51;9.50;;;2.53;;
72358;SDS011;60317;48.880;-0.862;2023-05-10T12:44:18;11.13;;;2.90;;
72358;SDS011;60317;48.880;-0.862;2023-05-10T12:46:44;14.13;;;2.80;;
72358;SDS011;60317;48.880;-0.862;2023-05-10T12:49:11;14.38;;;2.80;;
72358;SDS011;60317;48.880;-0.862;2023-05-10T12:51:39;13.88;;;3.28;;
72358;SDS011;60317;48.880;-0.862;2023-05-10T12:54:05;16.23;;;2.45;;
72358;SDS011;60317;48.880;-0.862;2023-05-10T12:56:32;10.32;;;2.35;;
72358;SDS011;60317;48.880;-0.862;2023-05-10T12:58:58;9.10;;;2.55;;
72358;SDS011;60317;48.880;-0.862;2023-05-10T13:01:25;11.40;;;2.63;;
72358;SDS011;60317;48.880;-0.862;2023-05-10T13:03:51;13.32;;;2.70;;
72358;SDS011;60317;48.880;-0.862;2023-05-10T13:06:18;8.77;;;2.38;;
72358;SDS011;60317;48.880;-0.862;2023-05-10T13:08:46;9.13;;;2.22;;
72358;SDS011;60317;48.880;-0.862;2023-05-10T13:11:12;6.45;;;2.05;;
72358;SDS011;60317;48.880;-0.862;2023-05-10T13:13:39;13.60;;;2.45;;
72358;SDS011;60317;48.880;-0.862;2023-05-10T13:16:06;10.10;;;2.20;;
72358;SDS011;60317;48.880;-0.862;2023-05-10T13:18:32;10.35;;;2.53;;
72358;SDS011;60317;48.880;-0.862;2023-05-10T13:20:59;9.27;;;2.33;;
72358;SDS011;60317;48.880;-0.862;2023-05-10T13:23:26;11.38;;;2.47;;
72358;SDS011;60317;48.880;-0.862;2023-05-10T13:25:53;13.60;;;2.85;;
72358;SDS011;60317;48.880;-0.862;2023-05-10T13:28:20;9.48;;;2.20;;
72358;SDS011;60317;48.880;-0.862;2023-05-10T13:30:46;13.50;;;3.03;;
72358;SDS011;60317;48.880;-0.862;2023-05-10T13:33:13;11.35;;;2.40;;
72358;SDS011;60317;48.880;-0.862;2023-05-10T13:35:40;18.63;;;3.03;;
72358;SDS011;60317;48.880;-0.862;2023-05-10T13:38:06;9.27;;;2.42;;
72358;SDS011;60317;48.880;-0.862;2023-05-10T13:40:33;11.82;;;2.33;;
72358;SDS011;60317;48.880;-0.862;2023-05-10T13:43:01;11.45;;;2.80;;
72358;SDS011;60317;48.880;-0.862;2023-05-10T13:45:27;15.02;;;2.78;;
72358;SDS011;60317;48.880;-0.862;2023-05-10T13:47:54;14.07;;;2.63;;
72358;SDS011;60317;48.880;-0.862;2023-05-10T13:50:20;9.20;;;2.35;;
72358;SDS011;60317;48.880;-0.862;2023-05-10T13:52:47;12.55;;;2.85;;
72358;SDS011;60317;48.880;-0.862;2023-05-10T13:55:13;10.10;;;2.33;;
72358;SDS011;60317;48.880;-0.862;2023-05-10T13:57:40;12.15;;;2.15;;
72358;SDS011;60317;48.880;-0.862;2023-05-10T14:00:08;15.00;;;2.42;;
72358;SDS011;60317;48.880;-0.862;2023-05-10T14:02:35;11.05;;;2.40;;
72358;SDS011;60317;48.880;-0.862;2023-05-10T14:05:02;9.60;;;2.10;;
72358;SDS011;60317;48.880;-0.862;2023-05-10T14:07:29;16.75;;;2.60;;
72358;SDS011;60317;48.880;-0.862;2023-05-10T14:09:55;14.82;;;2.30;;
72358;SDS011;60317;48.880;-0.862;2023-05-10T14:12:22;14.00;;;1.90;;
72358;SDS011;60317;48.880;-0.862;2023-05-10T14:14:48;10.18;;;2.00;;
72358;SDS011;60317;48.880;-0.862;2023-05-10T14:17:16;10.68;;;2.70;;
72358;SDS011;60317;48.880;-0.862;2023-05-10T14:19:43;8.75;;;2.33;;
72358;SDS011;60317;48.880;-0.862;2023-05-10T14:22:09;10.88;;;1.80;;
72358;SDS011;60317;48.880;-0.862;2023-05-10T14:24:36;11.48;;;2.38;;
72358;SDS011;60317;48.880;-0.862;2023-05-10T14:27:03;10.10;;;2.20;;
72358;SDS011;60317;48.880;-0.862;2023-05-10T14:29:30;9.35;;;1.90;;
72358;SDS011;60317;48.880;-0.862;2023-05-10T14:31:56;7.00;;;2.00;;
72358;SDS011;60317;48.880;-0.862;2023-05-10T14:34:24;5.60;;;1.90;;
72358;SDS011;60317;48.880;-0.862;2023-05-10T14:36:51;5.97;;;1.33;;
72358;SDS011;60317;48.880;-0.862;2023-05-10T14:39:18;7.75;;;1.80;;